Time;durP1;ratioP1;P1;durP2;ratioP2;P2;SDS_P1;SDS_P2;PMS_P1;PMS_P2;Temp;Humidity;BMP_temperature;BMP_pressure;BME280_temperature;BME280_humidity;BME280_pressure;Samples;Min_cycle;Max_cycle;Signal;HPM_P1;HPM_P2
2021/04/05 00:01:39;;;;;;;12.52;4.40;;;;;;;1.65;72.20;96645.81;5015515;28;20099;-61
2021/04/05 00:04:06;;;;;;;11.45;5.50;;;;;;;1.57;70.89;96627.69;4998504;28;20041;-63
2021/04/05 00:06:31;;;;;;;7.68;4.47;;;;;;;1.43;71.04;96633.16;5023376;28;20041;-62
2021/04/05 00:08:56;;;;;;;7.53;4.22;;;;;;;1.41;72.47;96623.78;5023426;28;20046;-62
2021/04/05 00:11:22;;;;;;;9.68;4.70;;;;;;;1.26;71.17;96627.66;5017627;28;20049;-62
2021/04/05 00:13:47;;;;;;;8.07;4.45;;;;;;;1.23;72.74;96637.16;5023093;28;20045;-64
2021/04/05 00:16:17;;;;;;;9.68;5.03;;;;;;;1.44;73.07;96633.94;5018651;28;20094;-65
2021/04/05 00:18:44;;;;;;;9.60;4.45;;;;;;;1.57;71.36;96630.38;5011648;28;20037;-62
2021/04/05 00:21:15;;;;;;;7.55;4.43;;;;;;;1.62;70.95;96630.25;5020670;28;20490;-62
2021/04/05 00:23:40;;;;;;;9.45;4.55;;;;;;;1.50;71.56;96621.94;5023164;28;20060;-61
2021/04/05 00:26:06;;;;;;;18.10;5.30;;;;;;;1.42;72.44;96609.19;5018619;28;20045;-63
2021/04/05 00:28:32;;;;;;;8.32;5.43;;;;;;;1.45;72.62;96601.25;5020203;28;20090;-65
2021/04/05 00:30:57;;;;;;;10.10;4.60;;;;;;;1.49;72.05;96596.81;5020505;28;20141;-61
2021/04/05 00:33:23;;;;;;;9.38;5.03;;;;;;;1.55;71.45;96591.28;5014153;28;20857;-63
2021/04/05 00:35:49;;;;;;;11.25;5.22;;;;;;;1.56;71.83;96592.91;5023089;28;20052;-62
2021/04/05 00:38:15;;;;;;;14.13;5.47;;;;;;;1.48;71.42;96576.34;5015693;28;20048;-60
2021/04/05 00:40:43;;;;;;;8.30;4.43;;;;;;;1.31;71.29;96576.25;5021301;28;20033;-62
2021/04/05 00:43:11;;;;;;;9.57;4.35;;;;;;;1.26;72.00;96574.50;5032362;28;20101;-63
2021/04/05 00:45:38;;;;;;;8.00;4.82;;;;;;;1.07;72.46;96571.22;5030186;28;20038;-62
2021/04/05 00:48:04;;;;;;;8.57;5.35;;;;;;;1.16;72.32;96568.56;5005628;28;20038;-65
2021/04/05 00:50:32;;;;;;;11.55;4.85;;;;;;;0.91;73.04;96550.00;5010100;28;20049;-61
2021/04/05 00:53:00;;;;;;;7.75;5.07;;;;;;;0.72;73.44;96552.91;5002821;28;20049;-60
2021/04/05 00:55:26;;;;;;;8.77;4.38;;;;;;;0.62;74.20;96561.22;4997964;28;20522;-62
2021/04/05 00:57:54;;;;;;;8.05;5.10;;;;;;;0.65;74.37;96562.50;4983459;28;20129;-63
2021/04/05 01:00:32;;;;;;;8.27;4.47;;;;;;;0.63;74.42;96562.84;4998713;28;20064;-59
2021/04/05 01:02:58;;;;;;;9.65;5.00;;;;;;;0.80;74.92;96564.06;5005339;28;20372;-61
2021/04/05 01:05:23;;;;;;;14.18;5.43;;;;;;;0.92;74.19;96565.09;5017417;28;20053;-62
2021/04/05 01:07:49;;;;;;;11.82;5.00;;;;;;;0.95;73.85;96556.41;5022289;28;20044;-63
2021/04/05 01:10:14;;;;;;;12.45;5.00;;;;;;;1.13;73.43;96562.69;5015628;28;20147;-61
2021/04/05 01:12:40;;;;;;;9.43;4.50;;;;;;;1.08;73.45;96560.13;5021717;28;20462;-62
2021/04/05 01:15:08;;;;;;;11.15;5.03;;;;;;;1.09;72.85;96548.22;5017318;28;20049;-64
2021/04/05 01:17:35;;;;;;;10.05;4.88;;;;;;;0.90;72.34;96542.22;5019268;28;20099;-61
2021/04/05 01:20:01;;;;;;;9.75;4.55;;;;;;;0.48;74.24;96531.63;5021709;28;20037;-61
2021/04/05 01:22:26;;;;;;;8.40;4.95;;;;;;;0.14;75.87;96538.31;5030434;28;20045;-60
2021/04/05 01:24:53;;;;;;;7.70;4.82;;;;;;;-0.13;77.32;96539.16;5027398;28;20395;-62
2021/04/05 01:27:18;;;;;;;9.90;5.40;;;;;;;-0.32;78.42;96539.28;4997801;28;20076;-63
2021/04/05 01:29:44;;;;;;;10.10;5.00;;;;;;;-0.41;77.65;96530.31;5021201;28;20045;-62
2021/04/05 01:32:09;;;;;;;12.70;5.80;;;;;;;-0.36;77.96;96532.09;5014305;28;20052;-63
2021/04/05 01:34:39;;;;;;;11.90;5.53;;;;;;;-0.10;78.77;96535.88;5012714;28;20095;-60
2021/04/05 01:37:05;;;;;;;8.38;5.18;;;;;;;0.11;78.21;96535.41;5004122;28;20085;-64
2021/04/05 01:39:35;;;;;;;9.38;6.13;;;;;;;0.31;77.09;96536.88;5001762;28;20042;-60
2021/04/05 01:42:02;;;;;;;9.52;5.53;;;;;;;0.35;76.24;96540.56;5005031;28;20069;-62
2021/04/05 01:44:31;;;;;;;10.50;5.30;;;;;;;0.38;76.43;96523.78;5006090;28;20066;-64
2021/04/05 01:46:56;;;;;;;13.20;5.80;;;;;;;-0.04;77.08;96523.09;5010113;28;20048;-60
2021/04/05 01:49:21;;;;;;;12.45;5.18;;;;;;;-0.25;77.32;96525.44;5013496;28;20144;-62
2021/04/05 01:51:47;;;;;;;9.65;5.07;;;;;;;-0.34;78.00;96525.34;5014457;28;20045;-61
2021/04/05 01:54:12;;;;;;;11.35;5.20;;;;;;;-0.44;77.79;96520.94;5000247;28;20045;-64
2021/04/05 01:56:38;;;;;;;9.00;5.28;;;;;;;-0.61;78.55;96515.38;5013262;28;20503;-61
2021/04/05 01:59:03;;;;;;;9.32;5.68;;;;;;;-0.64;78.94;96524.03;4998241;28;20614;-66
2021/04/05 02:01:31;;;;;;;10.75;5.63;;;;;;;-0.49;79.69;96512.19;4997678;28;20052;-61
2021/04/05 02:03:57;;;;;;;10.88;5.32;;;;;;;-0.22;79.01;96508.66;5021160;28;20402;-63
2021/04/05 02:06:27;;;;;;;10.48;5.05;;;;;;;-0.10;78.79;96494.69;5014681;28;20034;-63
2021/04/05 02:08:53;;;;;;;9.10;4.50;;;;;;;-0.14;76.59;96493.72;5020514;28;20056;-63
2021/04/05 02:11:24;;;;;;;13.15;5.60;;;;;;;-0.35;76.99;96496.03;5013194;28;20410;-60
2021/04/05 02:13:55;;;;;;;9.63;5.20;;;;;;;-0.33;78.01;96502.69;5003709;28;20041;-62
2021/04/05 02:16:21;;;;;;;9.68;5.28;;;;;;;-0.17;78.32;96495.09;5027968;28;20433;-61
2021/04/05 02:18:48;;;;;;;11.52;5.72;;;;;;;0.03;77.82;96499.25;5032386;28;20068;-63
2021/04/05 02:21:17;;;;;;;7.75;5.20;;;;;;;0.25;76.53;96505.75;5025464;28;20052;-63
2021/04/05 02:23:45;;;;;;;9.25;4.90;;;;;;;0.32;76.15;96498.06;5026294;28;20091;-64
2021/04/05 02:26:13;;;;;;;9.68;5.45;;;;;;;0.28;75.96;96497.09;5020741;28;20398;-63
2021/04/05 02:28:48;;;;;;;7.43;4.75;;;;;;;0.27;76.32;96500.88;5013403;28;20046;-63
2021/04/05 02:31:19;;;;;;;9.38;5.47;;;;;;;0.25;75.99;96486.91;5014827;28;20090;-61
2021/04/05 02:33:48;;;;;;;11.40;5.20;;;;;;;0.08;75.69;96493.75;5025424;28;20049;-61
2021/04/05 02:36:22;;;;;;;9.32;4.88;;;;;;;0.08;76.06;96490.25;5019642;28;20544;-62
2021/04/05 02:38:50;;;;;;;10.07;5.78;;;;;;;0.16;75.77;96492.22;5027074;28;20033;-62
2021/04/05 02:41:18;;;;;;;10.32;5.47;;;;;;;0.10;76.06;96482.69;5018935;28;20049;-60
2021/04/05 02:43:45;;;;;;;9.82;5.45;;;;;;;-0.04;75.37;96480.81;5007277;28;20046;-61
2021/04/05 02:46:17;;;;;;;13.60;6.55;;;;;;;-0.40;75.04;96486.97;5020943;28;20579;-61
2021/04/05 02:48:45;;;;;;;9.13;5.25;;;;;;;-0.40;77.53;96489.66;5028011;28;20052;-64
2021/04/05 02:51:11;;;;;;;10.73;5.78;;;;;;;-0.56;77.10;96487.56;5040095;28;20041;-63
2021/04/05 02:53:43;;;;;;;11.68;6.63;;;;;;;-0.33;78.32;96497.31;5044171;28;20037;-59
2021/04/05 02:56:10;;;;;;;11.20;5.60;;;;;;;-0.13;77.65;96487.22;5041004;28;20048;-61
2021/04/05 02:58:40;;;;;;;9.82;5.70;;;;;;;-0.44;77.03;96491.34;5044129;28;20036;-60
2021/04/05 03:01:07;;;;;;;13.80;5.35;;;;;;;-0.63;78.32;96474.50;5028451;28;20037;-63
2021/04/05 03:03:35;;;;;;;11.43;5.55;;;;;;;-0.73;78.81;96478.22;5024939;28;20187;-62
2021/04/05 03:06:00;;;;;;;9.00;5.60;;;;;;;-0.77;79.59;96471.84;5024490;28;20067;-62
2021/04/05 03:08:26;;;;;;;10.50;5.55;;;;;;;-0.71;79.58;96476.00;5019886;28;20041;-62
2021/04/05 03:10:51;;;;;;;10.30;5.32;;;;;;;-0.63;79.87;96474.50;5025094;28;20085;-61
2021/04/05 03:13:18;;;;;;;11.40;5.55;;;;;;;-0.55;78.96;96460.38;5019394;28;20053;-61
2021/04/05 03:15:44;;;;;;;9.93;5.22;;;;;;;-0.72;78.01;96441.34;5025625;28;20050;-60
2021/04/05 03:18:10;;;;;;;11.35;5.28;;;;;;;-1.06;80.00;96432.59;5020363;28;20051;-61
2021/04/05 03:20:37;;;;;;;10.75;5.97;;;;;;;-1.24;82.09;96439.66;5026826;28;20049;-62
2021/04/05 03:23:04;;;;;;;10.05;5.70;;;;;;;-1.39;81.08;96427.28;5049547;28;20025;-66
2021/04/05 03:25:30;;;;;;;12.05;6.43;;;;;;;-1.46;81.08;96426.06;5053502;28;20049;-62
2021/04/05 03:27:56;;;;;;;11.00;5.75;;;;;;;-1.43;83.19;96428.94;5032912;28;20037;-61
2021/04/05 03:30:50;;;;;;;13.27;6.05;;;;;;;-1.56;82.28;96413.63;5021011;28;20042;-60
2021/04/05 03:33:40;;;;;;;10.93;5.53;;;;;;;-1.60;81.37;96412.63;5018417;28;20042;-61
2021/04/05 03:36:16;;;;;;;;;;;;;;;-1.55;81.68;96420.56;5019921;28;20038;-61
2021/04/05 03:38:41;;;;;;;9.55;5.30;;;;;;;-1.44;82.58;96429.25;5025025;28;19913;-62
2021/04/05 03:41:16;;;;;;;12.52;6.07;;;;;;;-0.93;82.06;96438.28;5020666;28;20132;-63
2021/04/05 03:44:16;;;;;;;9.90;5.32;;;;;;;-0.67;80.52;96433.97;5023308;28;20042;-61
2021/04/05 03:46:45;;;;;;;11.80;5.63;;;;;;;-1.05;79.99;96418.03;4981893;28;20470;-59
2021/04/05 03:49:22;;;;;;;9.52;5.53;;;;;;;-1.19;80.63;96417.25;5018931;28;20151;-60
2021/04/05 03:51:56;;;;;;;12.15;5.70;;;;;;;-1.36;81.17;96413.25;5022606;28;20540;-61
2021/04/05 03:54:23;;;;;;;9.57;6.00;;;;;;;-1.13;81.68;96420.63;5018855;28;21103;-62
2021/04/05 03:56:53;;;;;;;10.98;5.85;;;;;;;-1.00;81.52;96420.63;5023121;28;20496;-60
2021/04/05 03:59:31;;;;;;;9.85;5.20;;;;;;;-0.86;80.47;96403.72;5016001;28;20044;-60
2021/04/05 04:02:01;;;;;;;9.77;5.38;;;;;;;-1.08;79.57;96401.72;5023776;28;20037;-60
2021/04/05 04:07:33;;;;;;;9.65;6.03;;;;;;;-1.46;80.39;96397.34;5005236;28;20144;-61
2021/04/05 04:10:02;;;;;;;10.57;5.75;;;;;;;-1.54;81.96;96404.16;5023387;28;20522;-60
2021/04/05 04:12:31;;;;;;;11.48;5.43;;;;;;;-1.24;82.38;96393.16;4998720;28;20116;-61
2021/04/05 04:14:59;;;;;;;12.82;5.90;;;;;;;-1.13;81.80;96391.06;5021442;28;20053;-62
2021/04/05 04:17:25;;;;;;;12.25;5.72;;;;;;;-1.44;81.30;96384.41;5000015;28;20069;-61
2021/04/05 04:19:52;;;;;;;12.50;6.63;;;;;;;-1.73;83.34;96390.81;5023238;28;20132;-62
2021/04/05 04:22:19;;;;;;;15.27;6.05;;;;;;;-1.70;83.28;96383.25;5013560;28;20522;-61
2021/04/05 04:24:45;;;;;;;10.63;5.82;;;;;;;-1.67;83.36;96363.88;5018138;28;20088;-60
2021/04/05 04:27:14;;;;;;;9.45;5.93;;;;;;;-1.77;82.53;96362.16;5012571;28;20177;-61
2021/04/05 04:29:39;;;;;;;15.63;6.60;;;;;;;-1.84;81.37;96362.53;5014528;28;20073;-60
2021/04/05 04:32:06;;;;;;;10.27;5.93;;;;;;;-1.90;81.81;96369.06;5016026;28;20063;-64
2021/04/05 04:34:31;;;;;;;9.65;5.60;;;;;;;-1.89;81.38;96367.19;5021891;28;20065;-60
2021/04/05 04:37:02;;;;;;;12.05;5.93;;;;;;;-1.73;82.40;96366.66;5023361;28;20088;-64
2021/04/05 04:39:29;;;;;;;9.00;5.70;;;;;;;-1.36;82.93;96366.78;5018196;28;20037;-64
2021/04/05 04:41:54;;;;;;;12.07;5.80;;;;;;;-1.09;81.75;96375.94;5013781;28;20033;-63
2021/04/05 04:44:20;;;;;;;11.98;5.90;;;;;;;-0.99;80.94;96368.47;5010553;28;20038;-62
2021/04/05 04:46:45;;;;;;;12.43;6.00;;;;;;;-0.85;80.54;96364.97;5002872;28;20499;-60
2021/04/05 04:49:12;;;;;;;10.18;5.60;;;;;;;-0.81;80.28;96366.78;5002491;28;20034;-62
2021/04/05 04:51:39;;;;;;;9.98;5.15;;;;;;;-0.77;79.68;96362.38;5010468;28;20052;-62
2021/04/05 04:54:06;;;;;;;8.68;5.53;;;;;;;-0.66;79.67;96360.25;5010548;28;20033;-65
2021/04/05 04:56:32;;;;;;;8.60;5.15;;;;;;;-0.53;78.99;96355.16;5022235;28;20498;-61
2021/04/05 04:59:04;;;;;;;7.82;5.00;;;;;;;-0.54;79.01;96353.53;5016144;28;20112;-60
2021/04/05 05:01:30;;;;;;;8.13;5.00;;;;;;;-0.47;78.52;96348.53;5014081;28;20049;-63
2021/04/05 05:03:59;;;;;;;11.00;5.60;;;;;;;-0.68;76.62;96356.28;5011712;28;20042;-62
2021/04/05 05:06:27;;;;;;;9.82;5.28;;;;;;;-0.65;78.35;96361.88;5001049;28;20057;-63
2021/04/05 05:08:53;;;;;;;9.75;5.45;;;;;;;-0.51;78.57;96366.41;5002618;28;20563;-60
2021/04/05 05:11:19;;;;;;;8.63;5.00;;;;;;;-0.29;77.98;96355.69;4999212;28;20049;-60
2021/04/05 05:13:45;;;;;;;12.93;5.18;;;;;;;0.00;76.62;96354.47;5017196;28;20041;-59
2021/04/05 05:16:11;;;;;;;8.55;4.97;;;;;;;0.15;76.06;96354.06;4999912;28;20191;-60
2021/04/05 05:18:38;;;;;;;11.00;5.38;;;;;;;0.42;76.78;96352.31;5002139;28;20041;-61
2021/04/05 05:21:11;;;;;;;10.75;4.85;;;;;;;0.65;75.04;96341.47;5001686;28;20042;-65
2021/04/05 05:23:40;;;;;;;11.82;4.57;;;;;;;0.83;73.55;96343.16;5002344;28;20037;-59
2021/04/05 05:26:08;;;;;;;13.43;5.37;;;;;;;0.97;73.62;96345.72;5001727;28;20041;-61
2021/04/05 05:28:36;;;;;;;9.18;5.20;;;;;;;1.09;71.83;96345.13;5016541;28;20303;-63
2021/04/05 05:31:02;;;;;;;8.38;5.72;;;;;;;1.48;71.00;96338.84;5004431;28;20041;-65
2021/04/05 05:33:28;;;;;;;18.15;5.82;;;;;;;1.81;69.62;96335.66;4989601;28;20380;-62
2021/04/05 05:35:54;;;;;;;9.88;5.10;;;;;;;2.79;66.47;96335.91;5010787;28;20061;-64
2021/04/05 05:38:22;;;;;;;8.98;5.25;;;;;;;3.03;64.61;96335.31;5002481;28;20041;-62
2021/04/05 05:40:48;;;;;;;8.20;4.50;;;;;;;3.05;64.67;96338.47;5018996;28;20048;-63
2021/04/05 05:43:40;;;;;;;7.95;4.47;;;;;;;3.51;63.26;96332.47;5013844;28;20061;-61
2021/04/05 05:46:23;;;;;;;8.15;4.68;;;;;;;3.91;60.96;96318.47;4977720;28;20037;-63
2021/04/05 05:49:00;;;;;;;23.77;12.25;;;;;;;4.04;60.66;96317.38;5002452;28;20037;-63
2021/04/05 05:52:03;;;;;;;47.25;23.05;;;;;;;3.39;62.25;96322.38;5003597;28;20077;-62
2021/04/05 05:54:44;;;;;;;37.20;17.90;;;;;;;3.64;64.10;96323.31;5007021;28;20037;-60
2021/04/05 05:57:16;;;;;;;23.45;9.55;;;;;;;3.78;63.46;96328.44;5008805;28;20045;-58
2021/04/05 05:59:53;;;;;;;13.77;6.75;;;;;;;3.86;62.76;96330.31;5031748;28;20041;-62
2021/04/05 06:02:56;;;;;;;13.02;5.53;;;;;;;6.22;56.15;96322.63;5016511;28;20037;-60
2021/04/05 06:05:35;;;;;;;8.95;4.63;;;;;;;8.56;48.30;96323.22;5006969;28;20437;-61
2021/04/05 06:08:01;;;;;;;7.57;4.53;;;;;;;9.58;45.69;96318.22;4995746;28;20041;-64
2021/04/05 06:10:30;;;;;;;9.35;5.07;;;;;;;10.32;44.75;96311.34;4979191;28;20050;-63
2021/04/05 06:13:08;;;;;;;7.38;4.25;;;;;;;11.99;40.15;96315.81;5014892;28;20487;-62
2021/04/05 06:15:50;;;;;;;13.40;4.38;;;;;;;13.24;37.00;96302.72;5014990;28;20053;-63
2021/04/05 06:18:31;;;;;;;8.52;4.35;;;;;;;13.31;37.07;96289.00;5002394;28;20033;-63
2021/04/05 06:21:11;;;;;;;9.38;5.25;;;;;;;12.90;37.78;96297.59;5023157;28;20401;-62
2021/04/05 06:23:59;;;;;;;22.23;16.08;;;;;;;10.68;43.21;96298.03;5016778;28;20041;-63
2021/04/05 06:26:39;;;;;;;26.02;15.90;;;;;;;11.99;41.09;96299.34;5007587;28;20119;-62
2021/04/05 06:29:32;;;;;;;15.95;8.88;;;;;;;11.75;40.59;96289.78;5008381;28;20060;-66
2021/04/05 06:32:19;;;;;;;12.13;8.25;;;;;;;12.29;39.14;96289.25;5019864;28;20046;-62
2021/04/05 06:35:02;;;;;;;9.05;6.35;;;;;;;11.83;40.85;96290.63;5013720;28;20041;-63
2021/04/05 06:37:35;;;;;;;9.77;5.07;;;;;;;11.41;41.33;96289.97;4995772;28;20045;-61
2021/04/05 06:40:06;;;;;;;11.43;5.35;;;;;;;10.37;44.63;96293.78;5009094;28;20057;-63
2021/04/05 06:42:58;;;;;;;20.02;11.00;;;;;;;9.01;51.28;96290.03;4990781;28;20045;-64
2021/04/05 06:45:24;;;;;;;11.00;7.05;;;;;;;8.50;52.32;96281.00;4985051;28;20041;-63
2021/04/05 06:48:04;;;;;;;11.68;6.13;;;;;;;8.57;51.92;96272.13;5013307;28;20038;-62
2021/04/05 06:50:49;;;;;;;12.10;5.50;;;;;;;8.45;54.34;96264.13;5006377;28;20068;-62
2021/04/05 06:53:52;;;;;;;16.77;9.13;;;;;;;6.94;59.48;96258.31;4994196;28;20057;-63
2021/04/05 06:56:26;;;;;;;16.60;11.27;;;;;;;6.82;60.78;96251.03;5001277;28;20045;-64
2021/04/05 06:59:03;;;;;;;15.80;10.63;;;;;;;6.64;60.84;96250.59;5012772;28;20051;-64
2021/04/05 07:01:47;;;;;;;13.93;7.28;;;;;;;8.19;57.33;96247.28;5017953;28;20053;-65
2021/04/05 07:04:49;;;;;;;12.43;6.03;;;;;;;10.31;51.41;96244.84;5006739;28;20085;-64
2021/04/05 07:07:25;;;;;;;10.80;5.50;;;;;;;10.41;50.00;96235.19;5013995;28;20034;-61
2021/04/05 07:10:13;;;;;;;10.32;5.82;;;;;;;10.03;50.00;96228.09;5019378;28;20132;-63
2021/04/05 07:13:01;;;;;;;12.27;5.10;;;;;;;10.82;48.27;96228.84;5000577;28;20038;-61
2021/04/05 07:16:15;;;;;;;13.57;4.68;;;;;;;10.75;48.24;96223.31;5020491;28;20494;-61
2021/04/05 07:19:16;;;;;;;8.60;4.30;;;;;;;12.29;45.32;96226.88;5019796;28;20502;-64
2021/04/05 07:21:56;;;;;;;6.13;3.60;;;;;;;12.85;43.14;96224.56;4963782;28;20048;-65
2021/04/05 07:24:47;;;;;;;9.20;4.05;;;;;;;13.44;41.04;96212.34;5008750;28;20061;-63
2021/04/05 07:28:00;;;;;;;12.13;4.05;;;;;;;14.13;39.97;96205.34;5004462;28;20073;-64
2021/04/05 07:30:39;;;;;;;9.73;3.97;;;;;;;14.04;39.91;96205.00;4947418;28;20061;-63
2021/04/05 07:33:14;;;;;;;12.25;4.75;;;;;;;15.14;38.08;96212.91;4950816;28;20043;-63
2021/04/05 07:36:01;;;;;;;6.70;3.78;;;;;;;16.28;35.62;96207.28;5000106;28;20129;-61
2021/04/05 07:38:43;;;;;;;9.77;4.18;;;;;;;15.08;38.53;96201.53;5008150;28;20136;-63
2021/04/05 07:41:38;;;;;;;7.70;4.00;;;;;;;14.89;35.99;96198.19;5018144;28;20046;-63
2021/04/05 07:44:03;;;;;;;7.22;3.28;;;;;;;14.22;35.74;96185.63;5025991;28;20048;-67
2021/04/05 07:46:54;;;;;;;8.65;3.10;;;;;;;14.33;35.20;96183.59;5008527;28;20041;-63
2021/04/05 07:49:24;;;;;;;6.97;3.22;;;;;;;13.16;36.11;96178.97;5016509;28;20046;-63
2021/04/05 07:51:57;;;;;;;7.40;3.10;;;;;;;13.64;35.15;96177.66;5019943;28;20065;-63
2021/04/05 07:54:27;;;;;;;6.13;3.30;;;;;;;13.31;35.88;96179.75;5015574;28;20061;-64
2021/04/05 07:57:11;;;;;;;6.43;2.95;;;;;;;13.53;35.22;96168.69;5018131;28;20117;-64
2021/04/05 08:00:03;;;;;;;6.63;3.30;;;;;;;12.71;36.84;96164.09;5019781;28;20081;-63
2021/04/05 08:02:40;;;;;;;5.47;3.33;;;;;;;12.02;37.41;96175.03;5013785;28;20502;-63
2021/04/05 08:05:16;;;;;;;10.02;3.22;;;;;;;11.58;38.92;96170.56;5005425;28;20075;-64
2021/04/05 08:08:00;;;;;;;6.85;3.33;;;;;;;11.55;38.66;96168.59;5022916;28;20047;-62
2021/04/05 08:10:37;;;;;;;6.72;3.17;;;;;;;11.69;38.42;96170.63;5007048;28;20516;-62
2021/04/05 08:13:54;;;;;;;9.70;3.60;;;;;;;11.52;38.69;96168.59;5010637;28;20120;-66
2021/04/05 08:16:50;;;;;;;8.95;3.53;;;;;;;12.04;37.71;96158.19;4981367;28;20243;-60
2021/04/05 08:19:28;;;;;;;10.25;3.65;;;;;;;12.37;36.86;96157.06;4998686;28;20034;-63
2021/04/05 08:22:15;;;;;;;7.53;3.35;;;;;;;13.68;35.30;96150.13;5021853;28;20073;-65
2021/04/05 08:25:02;;;;;;;5.47;3.00;;;;;;;14.22;33.41;96158.09;5005882;28;20502;-64
2021/04/05 08:27:43;;;;;;;7.22;2.88;;;;;;;14.07;34.02;96160.16;5008295;28;20057;-64
2021/04/05 08:30:21;;;;;;;9.55;3.20;;;;;;;12.71;36.16;96158.63;5013184;28;20121;-64
2021/04/05 08:33:21;;;;;;;11.48;3.25;;;;;;;13.19;35.62;96147.94;5022864;28;20045;-65
2021/04/05 08:36:05;;;;;;;6.68;3.17;;;;;;;13.49;35.26;96135.69;5020706;28;20132;-65
2021/04/05 08:38:41;;;;;;;12.20;4.65;;;;;;;13.59;33.87;96125.81;5020031;28;20038;-62
2021/04/05 08:41:43;;;;;;;7.20;3.13;;;;;;;13.70;34.24;96115.56;5010040;28;20038;-62
2021/04/05 08:44:16;;;;;;;7.65;3.30;;;;;;;13.67;33.12;96115.56;5026230;28;20072;-63
2021/04/05 08:46:44;;;;;;;6.50;3.20;;;;;;;13.62;33.56;96111.25;5013539;28;20074;-64
2021/04/05 08:49:19;;;;;;;9.25;3.80;;;;;;;13.24;33.33;96115.72;5010039;28;20054;-64
2021/04/05 08:51:50;;;;;;;9.23;3.50;;;;;;;13.14;33.81;96112.63;5019716;28;20483;-64
2021/04/05 08:54:21;;;;;;;8.50;3.08;;;;;;;13.38;33.60;96121.97;5016763;28;20128;-65
2021/04/05 08:56:53;;;;;;;7.93;3.72;;;;;;;13.58;34.18;96119.53;5021923;28;20033;-63
2021/04/05 08:59:34;;;;;;;6.00;3.00;;;;;;;14.44;32.35;96118.19;4997993;28;20048;-62
2021/04/05 09:02:13;;;;;;;5.68;2.97;;;;;;;15.03;31.84;96114.50;5012023;28;20071;-66
2021/04/05 09:04:40;;;;;;;9.77;3.10;;;;;;;14.65;32.21;96111.72;5011075;28;20056;-65
2021/04/05 09:07:20;;;;;;;5.97;2.40;;;;;;;14.67;31.83;96090.06;5005496;28;20077;-65
2021/04/05 09:09:50;;;;;;;9.73;3.03;;;;;;;13.40;33.11;96096.81;5018583;28;20042;-64
2021/04/05 09:12:16;;;;;;;8.30;3.28;;;;;;;13.87;33.52;96089.09;5010136;28;20038;-62
2021/04/05 09:15:07;;;;;;;13.75;6.10;;;;;;;14.12;33.07;96082.66;5014635;28;20483;-62
2021/04/05 09:17:35;;;;;;;16.25;2.90;;;;;;;13.59;32.30;96079.03;5020071;28;20107;-64
2021/04/05 09:20:23;;;;;;;8.98;2.47;;;;;;;13.35;33.24;96073.25;5021529;28;20064;-63
2021/04/05 09:23:24;;;;;;;8.55;4.22;;;;;;;13.65;33.00;96077.44;5000357;28;20140;-64
2021/04/05 09:26:17;;;;;;;8.93;3.60;;;;;;;13.75;33.11;96075.78;5002178;28;20037;-63
2021/04/05 09:28:58;;;;;;;8.90;2.85;;;;;;;13.55;33.15;96076.28;5019236;28;20045;-63
2021/04/05 09:31:32;;;;;;;11.88;3.50;;;;;;;13.51;33.77;96070.03;5017627;28;20056;-63
2021/04/05 09:34:10;;;;;;;5.50;2.72;;;;;;;13.14;34.47;96065.06;5022043;28;20072;-62
2021/04/05 09:36:53;;;;;;;7.13;3.38;;;;;;;12.99;34.28;96056.09;5026100;28;20044;-59
2021/04/05 09:40:04;;;;;;;7.03;2.50;;;;;;;12.93;34.67;96055.72;5016745;28;20041;-62
2021/04/05 09:42:59;;;;;;;7.57;2.67;;;;;;;13.13;34.69;96063.53;5008865;28;20046;-60
2021/04/05 09:46:13;;;;;;;9.57;3.10;;;;;;;13.75;33.12;96067.53;5002118;28;20046;-63
2021/04/05 09:48:38;;;;;;;5.90;2.60;;;;;;;14.49;32.68;96062.63;4950887;28;20042;-62
2021/04/05 09:51:32;;;;;;;6.85;2.40;;;;;;;14.26;32.94;96055.00;5004710;28;20048;-65
2021/04/05 09:54:45;;;;;;;7.82;3.03;;;;;;;14.18;33.07;96042.47;5009638;28;20041;-66
2021/04/05 09:57:20;;;;;;;9.50;2.53;;;;;;;14.58;32.22;96044.88;4972965;28;20513;-62
2021/04/05 09:59:52;;;;;;;4.60;2.53;;;;;;;14.90;32.16;96042.56;5008392;28;20053;-63
2021/04/05 10:02:33;;;;;;;5.85;2.30;;;;;;;14.15;32.50;96035.81;5016015;28;20038;-63
2021/04/05 10:05:00;;;;;;;9.27;2.60;;;;;;;13.37;33.43;96024.13;5001190;28;20041;-63
2021/04/05 10:07:28;;;;;;;4.68;2.38;;;;;;;13.11;34.04;96014.44;5016693;28;20041;-63
2021/04/05 10:09:55;;;;;;;8.02;2.60;;;;;;;13.00;33.82;96008.19;5021120;28;20099;-62
2021/04/05 10:12:23;;;;;;;5.43;2.47;;;;;;;12.78;33.91;96011.03;5014508;28;20065;-64
2021/04/05 10:14:50;;;;;;;10.18;2.80;;;;;;;12.63;34.22;96004.00;5002222;28;20156;-63
2021/04/05 10:17:21;;;;;;;8.43;2.58;;;;;;;12.85;33.97;96009.41;4998620;28;20038;-64
2021/04/05 10:19:52;;;;;;;7.38;2.45;;;;;;;12.98;33.97;95992.09;5014532;28;20076;-62
2021/04/05 10:22:19;;;;;;;9.10;2.83;;;;;;;12.74;34.44;96003.97;5000959;28;20124;-61
2021/04/05 10:24:49;;;;;;;4.93;1.98;;;;;;;12.92;34.43;95999.19;5014031;28;20046;-63
2021/04/05 10:27:17;;;;;;;5.57;2.53;;;;;;;12.41;35.01;95995.81;5016195;28;20038;-63
2021/04/05 10:29:44;;;;;;;6.95;2.35;;;;;;;12.86;34.68;95997.25;5021256;28;20042;-62
2021/04/05 10:32:18;;;;;;;7.35;2.85;;;;;;;12.72;34.39;95998.09;5017850;28;20041;-61
2021/04/05 10:34:46;;;;;;;9.73;2.92;;;;;;;12.88;34.69;95997.63;5029476;28;20037;-62
2021/04/05 10:37:20;;;;;;;4.90;2.30;;;;;;;12.86;34.62;95991.75;5029044;28;20041;-64
2021/04/05 10:39:46;;;;;;;6.38;2.55;;;;;;;12.97;34.87;95989.75;5024440;28;20092;-64
2021/04/05 10:42:20;;;;;;;4.18;2.33;;;;;;;12.98;34.99;95985.81;5002433;28;20131;-64
2021/04/05 10:44:47;;;;;;;4.32;2.30;;;;;;;12.88;35.23;95984.69;5025667;28;20095;-62
2021/04/05 10:47:28;;;;;;;9.13;2.40;;;;;;;12.96;34.89;95988.16;5017796;28;20052;-64
2021/04/05 10:49:55;;;;;;;7.55;2.55;;;;;;;12.87;35.51;95985.06;5024784;28;20061;-64
2021/04/05 10:52:33;;;;;;;5.75;2.30;;;;;;;12.77;35.44;95978.44;5020380;28;20048;-64
2021/04/05 10:55:01;;;;;;;7.38;2.42;;;;;;;12.72;36.06;95967.88;5023374;28;20053;-62
2021/04/05 10:57:32;;;;;;;5.00;2.53;;;;;;;12.40;36.18;95961.28;5020879;28;20037;-64
2021/04/05 11:00:00;;;;;;;9.90;3.03;;;;;;;12.20;36.03;95958.19;5025209;28;20120;-64
2021/04/05 11:02:49;;;;;;;8.88;2.58;;;;;;;12.02;36.77;95949.19;5018557;28;20483;-62
2021/04/05 11:05:21;;;;;;;7.33;3.10;;;;;;;11.93;37.03;95949.59;5018145;28;20045;-63
2021/04/05 11:07:55;;;;;;;5.82;2.30;;;;;;;12.17;37.06;95952.69;5016315;28;20411;-61
2021/04/05 11:10:22;;;;;;;5.88;2.30;;;;;;;12.56;36.94;95933.38;4996856;28;20502;-62
2021/04/05 11:13:12;;;;;;;6.15;2.67;;;;;;;12.37;37.01;95937.38;5019263;28;20049;-64
2021/04/05 11:15:39;;;;;;;;;;;;;;;12.47;37.20;95924.78;5024279;28;20041;-64
2021/04/05 11:18:08;;;;;;;9.45;2.80;;;;;;;12.42;37.26;95920.50;5021641;28;20294;-66
2021/04/05 11:20:35;;;;;;;6.27;2.70;;;;;;;12.79;36.85;95921.91;5024673;28;20065;-63
2021/04/05 11:23:23;;;;;;;8.20;2.85;;;;;;;12.87;36.69;95911.66;5023078;28;20048;-63
2021/04/05 11:25:51;;;;;;;8.77;3.00;;;;;;;12.85;36.83;95926.97;5024429;28;20101;-63
2021/04/05 11:28:20;;;;;;;7.70;3.00;;;;;;;13.11;36.57;95925.69;5013670;28;20042;-63
2021/04/05 11:30:58;;;;;;;8.50;2.78;;;;;;;13.27;36.53;95925.16;5020524;28;20041;-64
2021/04/05 11:33:27;;;;;;;8.63;3.35;;;;;;;13.10;36.50;95918.59;5018162;28;20143;-62
2021/04/05 11:35:55;;;;;;;6.10;3.20;;;;;;;13.16;37.16;95909.53;5024144;28;20041;-63
2021/04/05 11:38:22;;;;;;;5.25;2.63;;;;;;;13.67;35.99;95889.94;5015511;28;20065;-63
2021/04/05 11:40:54;;;;;;;5.43;2.42;;;;;;;13.79;36.52;95894.91;5021918;28;20037;-63
2021/04/05 11:43:25;;;;;;;8.82;2.95;;;;;;;13.43;36.80;95886.94;5012525;28;20034;-63
2021/04/05 11:46:01;;;;;;;5.95;3.33;;;;;;;13.29;37.44;95870.53;5005312;28;20044;-63
2021/04/05 11:48:28;;;;;;;7.20;3.35;;;;;;;13.40;37.66;95874.03;5018140;28;20044;-63
2021/04/05 11:50:54;;;;;;;7.47;3.83;;;;;;;13.98;36.79;95859.75;5020385;28;20065;-61
2021/04/05 11:53:28;;;;;;;5.53;2.63;;;;;;;14.53;36.46;95858.69;5008934;28;20079;-62
2021/04/05 11:56:10;;;;;;;9.77;2.90;;;;;;;14.30;35.87;95842.88;5019881;28;20140;-64
2021/04/05 11:58:39;;;;;;;5.70;2.30;;;;;;;14.32;36.03;95863.28;5018036;28;20129;-62
2021/04/05 12:01:12;;;;;;;7.00;2.47;;;;;;;14.60;36.02;95860.63;5009946;28;20041;-61
2021/04/05 12:03:59;;;;;;;11.88;3.65;;;;;;;14.46;35.18;95850.56;5003452;28;20288;-61
2021/04/05 12:06:35;;;;;;;8.05;3.03;;;;;;;14.39;35.10;95837.63;5021984;28;20146;-62
2021/04/05 12:09:05;;;;;;;8.85;3.40;;;;;;;14.74;35.47;95829.34;5019244;28;20037;-62